Flight Track Log - Related Links

Times and Time Zones

All times are in EDT time to prevent confusion due to time zone crossing. See the JIA2374 flight status page for this flight to view local times or setup timezone preferences in your user account.

Time Position Orientation Groundspeed Altitude Reporting Facility
EDT Latitude Longitude Course Direction KTS MPH feet Rate Location/Type
Tue 02:50:15 PM 35.1972 -80.9381 171° South 150 173 1,600  Level Atlanta Center
Tue 02:51:10 PM 35.1511 -80.9294 171° South 188 216 3,400 1,966 Climbing Atlanta Center
Tue 02:52:11 PM 35.0994 -80.8756 140° Southeast 273 314 5,400 2,262 Climbing Atlanta Center
Tue 02:53:12 PM 35.0989 -80.7742 90° East 290 334 8,000 1,279 Climbing Atlanta Center
Tue 02:54:13 PM 35.1092 -80.6822 82° East 279 321 8,000 1,328 Level Atlanta Center
Tue 02:55:14 PM 35.0939 -80.5864 101° East 292 336 10,700 2,651 Climbing Atlanta Center
Tue 02:56:22 PM 35.0678 -80.4733 106° East 314 361 13,700 2,438 Climbing Atlanta Center
Tue 02:57:22 PM 35.0583 -80.3697 96° East 309 356 15,900 975 Climbing Atlanta Center
Tue 02:59:45 PM 35.0678 -80.0911 88° East 360 414 17,000 324 Climbing Washington Center
Tue 03:00:46 PM 35.0603 -79.9564 94° East 368 423 17,000  Level Washington Center
Tue 03:01:44 PM 35.0414 -79.8436 102° East 368 423 17,000  Level Washington Center
Tue 03:02:45 PM 35.0189 -79.7106 102° East 373 429 17,000  Level Washington Center
Tue 03:03:45 PM 34.9997 -79.6006 102° East 373 429 17,000  Level Washington Center
Tue 03:04:46 PM 34.9769 -79.4678 102° East 373 429 17,000  Level Washington Center
Tue 03:05:44 PM 34.9642 -79.3431 97° East 373 429 17,000  Level Washington Center
Tue 03:06:44 PM 34.9681 -79.2164 88° East 368 423 17,000  Level Washington Center
Tue 03:07:45 PM 34.9739 -79.0925 87° East 368 423 17,000  Level Washington Center
Tue 03:08:47 PM 34.9839 -78.9661 84° East 371 427 17,000  Level Washington Center
Tue 03:09:44 PM 34.9644 -78.8436 101° East 363 418 17,000  Level Washington Center
Tue 03:10:45 PM 34.9064 -78.7475 126° Southeast 342 394 17,000 -443 Level Washington Center
Tue 03:11:46 PM 34.8500 -78.6644 130° Southeast 348 400 16,100 -1,008 Descending Washington Center
Tue 03:12:44 PM 34.7881 -78.5608 126° Southeast 354 407 15,000 -1,361 Descending Washington Center
Tue 03:13:45 PM 34.7319 -78.4706 127° Southeast 340 391 13,400 -1,525 Descending Washington Center
Tue 03:14:46 PM 34.6775 -78.3903 129° Southeast 327 376 11,900 -1,587 Descending Washington Center
Tue 03:15:46 PM 34.6292 -78.3128 127° Southeast 301 346 10,200 -1,729 Descending Washington Center
Tue 03:16:44 PM 34.5786 -78.2356 128° Southeast 295 339 8,500 -1,613 Descending Washington Center
Tue 03:17:45 PM 34.5258 -78.1658 133° Southeast 290 334 7,000 -738 Descending Washington Center
Tue 03:18:46 PM 34.5089 -78.0844 104° East 261 300 7,000 -403 Level Washington Center
Tue 03:19:44 PM 34.5211 -77.9967 80° East 249 287 6,200 -807 Descending Washington Center
Tue 03:20:45 PM 34.5353 -77.9189 78° East 238 274 5,400 -590 Descending Washington Center
Tue 03:21:46 PM 34.5281 -77.8608 99° East 183 211 5,000 -393 Descending Washington Center

Login

Don't have an account? Register now (free) for customized features, flight alerts, and more!